Time;durP1;ratioP1;P1;durP2;ratioP2;P2;SDS_P1;SDS_P2;PMS_P1;PMS_P2;Temp;Humidity;BMP_temperature;BMP_pressure;BME280_temperature;BME280_humidity;BME280_pressure;Samples;Min_cycle;Max_cycle;Signal;HPM_P1;HPM_P2
2022/03/20 00:00:11;;;;;;;2.22;0.80;;;;;;;;;;4951257;29;20032;-64
2022/03/20 00:02:37;;;;;;;3.70;0.80;;;;;;;;;;4938306;29;20383;-63
2022/03/20 00:05:04;;;;;;;2.30;0.90;;;;;;;;;;4944123;29;20035;-63
2022/03/20 00:07:34;;;;;;;2.20;0.80;;;;;;;;;;4957458;29;20030;-67
2022/03/20 00:10:03;;;;;;;3.85;1.00;;;;;;;;;;4957346;28;20034;-63
2022/03/20 00:12:29;;;;;;;1.80;0.85;;;;;;;;;;4957283;29;20034;-66
2022/03/20 00:14:55;;;;;;;1.48;0.90;;;;;;;;;;4954476;28;20046;-64
2022/03/20 00:17:21;;;;;;;3.03;0.90;;;;;;;;;;4943495;29;20391;-65
2022/03/20 00:19:48;;;;;;;3.88;0.80;;;;;;;;;;4951011;29;20039;-65
2022/03/20 00:22:15;;;;;;;3.83;1.00;;;;;;;;;;4955834;29;20134;-65
2022/03/20 00:24:41;;;;;;;3.53;0.90;;;;;;;;;;4952821;28;20534;-67
2022/03/20 00:27:12;;;;;;;1.58;0.95;;;;;;;;;;4956966;29;20023;-63
2022/03/20 00:29:38;;;;;;;2.60;1.08;;;;;;;;;;4956394;28;20027;-68
2022/03/20 00:32:05;;;;;;;4.82;0.90;;;;;;;;;;4949068;29;20550;-69
2022/03/20 00:34:31;;;;;;;5.45;1.10;;;;;;;;;;4957059;29;20447;-64
2022/03/20 00:36:57;;;;;;;7.43;1.10;;;;;;;;;;4956606;29;20023;-69
2022/03/20 00:39:23;;;;;;;3.03;1.15;;;;;;;;;;4956746;29;20090;-70
2022/03/20 00:41:49;;;;;;;2.00;1.00;;;;;;;;;;4973552;28;20027;-67
2022/03/20 00:44:15;;;;;;;2.97;1.30;;;;;;;;;;4941707;29;20038;-63
2022/03/20 00:46:41;;;;;;;2.83;2.03;;;;;;;;;;4937754;29;20035;-63
2022/03/20 00:49:07;;;;;;;2.70;1.20;;;;;;;;;;4951229;29;20031;-64
2022/03/20 00:51:33;;;;;;;2.42;1.23;;;;;;;;;;4956045;29;20114;-64
2022/03/20 00:53:59;;;;;;;2.33;1.25;;;;;;;;;;4956516;29;20114;-67
2022/03/20 00:56:25;;;;;;;2.47;1.30;;;;;;;;;;4956902;28;20046;-67
2022/03/20 00:58:51;;;;;;;2.67;1.23;;;;;;;;;;4956561;28;20050;-64
2022/03/20 01:01:17;;;;;;;1.95;1.40;;;;;;;;;;4956823;29;20073;-64
2022/03/20 01:03:43;;;;;;;1.30;1.10;;;;;;;;;;4956583;29;20549;-65
2022/03/20 01:06:10;;;;;;;4.82;1.20;;;;;;;;;;4952481;29;20030;-65
2022/03/20 01:08:36;;;;;;;3.92;1.25;;;;;;;;;;4956408;28;20030;-68
2022/03/20 01:11:05;;;;;;;2.13;1.20;;;;;;;;;;4956447;29;20038;-63
2022/03/20 01:13:31;;;;;;;2.30;1.30;;;;;;;;;;4956096;28;20039;-64
2022/03/20 01:15:58;;;;;;;4.25;1.38;;;;;;;;;;4949536;29;20091;-72
2022/03/20 01:18:27;;;;;;;1.88;1.40;;;;;;;;;;4937285;29;20031;-65
2022/03/20 01:20:58;;;;;;;2.75;1.52;;;;;;;;;;4944181;29;20024;-69
2022/03/20 01:23:24;;;;;;;2.42;1.58;;;;;;;;;;4948141;29;20027;-65
2022/03/20 01:25:50;;;;;;;3.15;1.63;;;;;;;;;;4951124;28;20035;-64
2022/03/20 01:28:17;;;;;;;2.20;1.30;;;;;;;;;;4956087;29;20167;-64
2022/03/20 01:30:45;;;;;;;3.03;1.65;;;;;;;;;;4956237;29;20560;-71
2022/03/20 01:33:11;;;;;;;5.55;1.52;;;;;;;;;;4956005;29;20035;-64
2022/03/20 01:35:37;;;;;;;3.22;1.65;;;;;;;;;;4955870;29;20174;-66
2022/03/20 01:38:05;;;;;;;3.22;1.77;;;;;;;;;;4943277;28;20031;-65
2022/03/20 01:40:31;;;;;;;1.67;1.58;;;;;;;;;;4936848;29;20111;-73
2022/03/20 01:42:57;;;;;;;6.45;1.80;;;;;;;;;;4955824;29;20027;-67
2022/03/20 01:45:24;;;;;;;2.83;1.90;;;;;;;;;;4957415;29;20023;-71
2022/03/20 01:47:50;;;;;;;6.25;1.90;;;;;;;;;;4941862;28;20050;-63
2022/03/20 01:50:17;;;;;;;9.13;2.20;;;;;;;;;;4936298;29;20051;-66
2022/03/20 01:52:45;;;;;;;6.07;1.75;;;;;;;;;;4936652;29;20035;-66
2022/03/20 01:55:11;;;;;;;3.50;1.60;;;;;;;;;;4943395;28;20103;-66
2022/03/20 01:57:39;;;;;;;4.32;2.08;;;;;;;;;;4954762;29;20028;-64
2022/03/20 02:00:08;;;;;;;9.52;1.90;;;;;;;;;;4952210;29;20034;-63
2022/03/20 02:02:34;;;;;;;4.63;1.83;;;;;;;;;;4947609;29;20028;-66
2022/03/20 02:05:01;;;;;;;5.75;2.05;;;;;;;;;;4941049;29;20094;-64
2022/03/20 02:07:27;;;;;;;4.65;1.83;;;;;;;;;;4954610;28;20447;-69
2022/03/20 02:09:53;;;;;;;9.52;2.13;;;;;;;;;;4952204;28;20024;-63
2022/03/20 02:12:20;;;;;;;8.10;1.70;;;;;;;;;;4954051;29;20043;-65
2022/03/20 02:14:46;;;;;;;7.07;2.05;;;;;;;;;;4944847;28;20040;-65
2022/03/20 02:17:12;;;;;;;18.67;2.30;;;;;;;;;;4941144;28;20044;-65
2022/03/20 02:19:39;;;;;;;12.23;2.20;;;;;;;;;;4951428;29;20032;-64
2022/03/20 02:22:05;;;;;;;25.55;2.53;;;;;;;;;;4939873;29;20048;-62
2022/03/20 02:24:41;;;;;;;5.88;2.17;;;;;;;;;;4947770;29;20039;-65
2022/03/20 02:27:17;;;;;;;16.80;2.25;;;;;;;;;;4950284;29;20027;-64
2022/03/20 02:29:53;;;;;;;10.35;2.75;;;;;;;;;;4948658;28;20107;-66
2022/03/20 02:32:23;;;;;;;21.05;2.20;;;;;;;;;;4945897;29;20111;-67
2022/03/20 02:34:49;;;;;;;8.43;2.03;;;;;;;;;;4943148;29;20114;-67
2022/03/20 02:37:18;;;;;;;14.48;2.30;;;;;;;;;;4950915;28;20034;-65
2022/03/20 02:39:44;;;;;;;9.43;1.95;;;;;;;;;;4953272;29;20035;-64
2022/03/20 02:42:13;;;;;;;36.40;2.78;;;;;;;;;;4953740;29;20050;-64
2022/03/20 02:45:00;;;;;;;22.80;2.70;;;;;;;;;;4954152;28;20074;-64
2022/03/20 02:47:37;;;;;;;11.82;2.08;;;;;;;;;;4954206;29;20035;-64
2022/03/20 02:50:07;;;;;;;18.65;2.58;;;;;;;;;;4941551;28;20019;-64
2022/03/20 02:52:48;;;;;;;17.85;2.50;;;;;;;;;;4934764;29;20032;-64
2022/03/20 02:55:16;;;;;;;10.30;2.20;;;;;;;;;;4934824;29;20042;-65
2022/03/20 02:57:42;;;;;;;15.95;2.30;;;;;;;;;;4951363;29;20450;-64
2022/03/20 03:00:08;;;;;;;8.85;1.95;;;;;;;;;;4952584;29;20115;-64
2022/03/20 03:02:35;;;;;;;13.30;2.20;;;;;;;;;;4951822;29;20090;-64
2022/03/20 03:05:01;;;;;;;11.73;2.38;;;;;;;;;;4953818;29;20038;-64
2022/03/20 03:07:30;;;;;;;10.05;2.30;;;;;;;;;;4951102;28;20028;-64
2022/03/20 03:12:41;;;;;;;6.68;2.55;;;;;;;;;;4943604;29;20050;-64
2022/03/20 03:15:20;;;;;;;8.85;2.15;;;;;;;;;;4941285;29;20040;-64
2022/03/20 03:17:47;;;;;;;11.60;2.30;;;;;;;;;;4945907;29;20107;-65
2022/03/20 03:20:13;;;;;;;7.00;1.95;;;;;;;;;;4943774;29;20035;-65
2022/03/20 03:22:39;;;;;;;16.55;2.78;;;;;;;;;;4948286;29;20460;-65
2022/03/20 03:25:05;;;;;;;13.35;2.40;;;;;;;;;;4943856;29;20023;-65
2022/03/20 03:27:31;;;;;;;14.65;2.55;;;;;;;;;;4943753;29;20387;-64
2022/03/20 03:29:57;;;;;;;19.92;2.72;;;;;;;;;;4953417;29;20435;-66
2022/03/20 03:32:23;;;;;;;14.95;2.50;;;;;;;;;;4944581;29;20506;-64
2022/03/20 03:37:34;;;;;;;5.60;1.90;;;;;;;;;;4949250;29;20087;-64
2022/03/20 03:40:02;;;;;;;5.85;2.10;;;;;;;;;;4953035;28;20039;-64
2022/03/20 03:42:29;;;;;;;6.53;2.00;;;;;;;;;;4952150;29;20542;-64
2022/03/20 03:44:55;;;;;;;12.55;2.13;;;;;;;;;;4950174;28;20082;-68
2022/03/20 03:47:21;;;;;;;8.50;2.10;;;;;;;;;;4952031;29;20031;-65
2022/03/20 03:49:48;;;;;;;16.02;2.20;;;;;;;;;;4955001;28;20023;-65
2022/03/20 03:52:14;;;;;;;11.95;2.72;;;;;;;;;;4971792;28;20023;-65
2022/03/20 03:54:40;;;;;;;10.43;2.22;;;;;;;;;;4957174;28;20074;-65
2022/03/20 03:57:06;;;;;;;13.75;2.50;;;;;;;;;;4971906;28;20098;-68
2022/03/20 03:59:32;;;;;;;17.67;2.30;;;;;;;;;;4946971;29;20399;-64
2022/03/20 04:02:00;;;;;;;8.75;2.10;;;;;;;;;;4950210;29;20019;-66
2022/03/20 04:04:26;;;;;;;16.30;2.00;;;;;;;;;;4954103;28;20510;-64
2022/03/20 04:06:52;;;;;;;12.45;2.38;;;;;;;;;;4949769;29;20031;-65
2022/03/20 04:09:18;;;;;;;9.77;2.33;;;;;;;;;;4954095;29;20051;-67
2022/03/20 04:11:44;;;;;;;6.88;2.17;;;;;;;;;;4939599;29;20039;-64
2022/03/20 04:14:10;;;;;;;7.30;2.20;;;;;;;;;;4955643;28;20412;-67
2022/03/20 04:16:36;;;;;;;6.57;2.03;;;;;;;;;;4945475;29;20079;-65
2022/03/20 04:19:02;;;;;;;15.75;2.47;;;;;;;;;;4936088;29;20043;-65
2022/03/20 04:21:28;;;;;;;4.53;1.83;;;;;;;;;;4937206;29;20546;-64
2022/03/20 04:23:55;;;;;;;8.45;1.90;;;;;;;;;;4946792;29;20038;-67
2022/03/20 04:26:21;;;;;;;6.63;1.90;;;;;;;;;;4955496;28;20028;-64
2022/03/20 04:28:48;;;;;;;7.50;2.20;;;;;;;;;;4955526;28;20539;-67
2022/03/20 04:31:19;;;;;;;10.98;2.00;;;;;;;;;;4956169;29;20023;-64
2022/03/20 04:33:53;;;;;;;11.02;2.13;;;;;;;;;;4956273;28;20030;-65
2022/03/20 04:36:23;;;;;;;6.63;2.40;;;;;;;;;;4947894;28;20073;-67
2022/03/20 04:38:50;;;;;;;3.65;2.20;;;;;;;;;;4947586;29;20455;-64
2022/03/20 04:41:17;;;;;;;5.82;2.33;;;;;;;;;;4955928;28;20039;-65
2022/03/20 04:43:44;;;;;;;7.55;2.10;;;;;;;;;;4951678;28;20031;-65
2022/03/20 04:46:10;;;;;;;7.65;1.98;;;;;;;;;;4949777;29;20055;-67
2022/03/20 04:59:34;;;;;;;4.90;1.95;;;;;;;;;;4956288;29;20058;-64
2022/03/20 05:02:00;;;;;;;8.38;2.17;;;;;;;;;;4954796;28;20067;-64
2022/03/20 05:04:26;;;;;;;7.22;1.95;;;;;;;;;;4955796;29;20031;-64
2022/03/20 05:06:52;;;;;;;5.82;2.17;;;;;;;;;;4955515;29;20035;-63
2022/03/20 05:14:47;;;;;;;12.43;3.03;;;;;;;;;;4952086;29;20102;-65
2022/03/20 05:17:13;;;;;;;10.05;2.53;;;;;;;;;;4953425;29;20442;-66
2022/03/20 05:19:42;;;;;;;3.28;2.35;;;;;;;;;;4936620;29;20380;-69
2022/03/20 05:22:12;;;;;;;6.57;2.95;;;;;;;;;;4950630;29;20059;-67
2022/03/20 05:24:39;;;;;;;9.68;3.08;;;;;;;;;;4949554;28;20024;-64
2022/03/20 05:27:05;;;;;;;4.93;2.88;;;;;;;;;;4936370;29;20051;-66
2022/03/20 05:29:31;;;;;;;6.20;2.53;;;;;;;;;;4943988;29;20035;-63
2022/03/20 05:31:57;;;;;;;4.68;2.95;;;;;;;;;;4946601;29;20032;-64
2022/03/20 05:34:23;;;;;;;5.43;3.20;;;;;;;;;;4950482;29;20046;-64
2022/03/20 05:36:51;;;;;;;8.20;3.20;;;;;;;;;;4965039;28;20106;-65
2022/03/20 05:39:17;;;;;;;4.43;2.80;;;;;;;;;;4974421;28;20114;-64
2022/03/20 05:41:47;;;;;;;6.07;3.17;;;;;;;;;;4988728;28;20039;-64
2022/03/20 05:44:16;;;;;;;4.43;3.00;;;;;;;;;;4958786;28;20126;-64
2022/03/20 05:46:44;;;;;;;7.75;3.13;;;;;;;;;;4953192;29;20058;-65
2022/03/20 05:49:10;;;;;;;8.07;3.22;;;;;;;;;;4954626;28;20075;-64
2022/03/20 05:51:37;;;;;;;13.00;3.42;;;;;;;;;;4946744;28;20077;-64
2022/03/20 05:54:03;;;;;;;5.25;3.05;;;;;;;;;;4953856;28;20023;-63
2022/03/20 05:59:14;;;;;;;4.90;3.20;;;;;;;;;;4953899;29;20034;-62
2022/03/20 06:01:40;;;;;;;5.10;3.00;;;;;;;;;;4953684;29;20027;-63
2022/03/20 06:04:07;;;;;;;7.78;3.20;;;;;;;;;;4953744;29;20034;-63
2022/03/20 06:06:34;;;;;;;7.82;3.58;;;;;;;;;;4953780;28;20098;-63
2022/03/20 06:09:00;;;;;;;7.53;3.10;;;;;;;;;;4948569;28;20031;-65
2022/03/20 06:11:26;;;;;;;6.13;3.40;;;;;;;;;;4939416;29;20028;-65
2022/03/20 06:13:53;;;;;;;7.88;3.30;;;;;;;;;;4937959;29;20031;-65
2022/03/20 06:16:21;;;;;;;4.80;3.08;;;;;;;;;;4953781;28;20058;-63
2022/03/20 06:18:48;;;;;;;4.22;2.97;;;;;;;;;;4952265;28;20023;-63
2022/03/20 06:21:14;;;;;;;4.70;2.97;;;;;;;;;;4937025;29;20051;-70
2022/03/20 06:23:40;;;;;;;6.63;3.25;;;;;;;;;;4946958;29;20034;-64
2022/03/20 06:26:07;;;;;;;4.75;3.40;;;;;;;;;;4936468;28;20439;-65
2022/03/20 06:28:33;;;;;;;6.75;3.45;;;;;;;;;;4934889;29;20514;-64
2022/03/20 06:31:00;;;;;;;6.95;3.08;;;;;;;;;;4938798;29;20039;-64
2022/03/20 06:33:26;;;;;;;19.42;3.20;;;;;;;;;;4951393;29;20031;-65
2022/03/20 06:35:52;;;;;;;3.40;3.10;;;;;;;;;;4938279;28;20059;-67
2022/03/20 06:38:18;;;;;;;4.60;3.40;;;;;;;;;;4972478;28;20034;-66
2022/03/20 06:40:44;;;;;;;7.13;3.60;;;;;;;;;;4957657;28;20482;-64
2022/03/20 06:43:10;;;;;;;5.45;3.30;;;;;;;;;;4950387;28;20035;-66
2022/03/20 06:45:36;;;;;;;10.98;3.95;;;;;;;;;;4947840;29;20029;-65
2022/03/20 06:48:03;;;;;;;11.48;3.53;;;;;;;;;;4944848;29;20042;-62
2022/03/20 06:50:29;;;;;;;12.95;3.65;;;;;;;;;;4941806;29;20627;-62
2022/03/20 06:53:01;;;;;;;13.95;4.03;;;;;;;;;;4948217;28;20020;-64
2022/03/20 06:55:27;;;;;;;11.70;3.43;;;;;;;;;;4944542;29;20094;-66
2022/03/20 06:57:53;;;;;;;16.50;3.88;;;;;;;;;;4945893;29;20031;-65
2022/03/20 07:00:19;;;;;;;11.05;3.67;;;;;;;;;;4946034;29;20107;-67
2022/03/20 07:02:45;;;;;;;6.72;4.20;;;;;;;;;;4949542;28;20083;-67
2022/03/20 07:05:11;;;;;;;8.10;4.13;;;;;;;;;;4942785;29;20040;-67
2022/03/20 07:07:37;;;;;;;15.38;4.20;;;;;;;;;;4945948;29;20495;-66
2022/03/20 07:10:04;;;;;;;7.15;4.43;;;;;;;;;;4946574;29;20046;-67
2022/03/20 07:12:30;;;;;;;18.70;4.80;;;;;;;;;;4936577;29;20039;-68
2022/03/20 07:14:57;;;;;;;28.15;4.88;;;;;;;;;;4938887;29;20043;-70
2022/03/20 07:17:24;;;;;;;23.92;5.50;;;;;;;;;;4943943;29;20055;-71
2022/03/20 07:19:50;;;;;;;27.08;4.97;;;;;;;;;;4953641;28;20030;-71
2022/03/20 07:22:16;;;;;;;26.63;5.80;;;;;;;;;;4942649;29;20032;-71
2022/03/20 07:24:44;;;;;;;21.38;5.47;;;;;;;;;;4946912;28;20031;-68
2022/03/20 07:29:55;;;;;;;22.42;5.30;;;;;;;;;;4949079;29;20086;-73
2022/03/20 07:32:21;;;;;;;17.70;5.20;;;;;;;;;;4954423;28;20066;-71
2022/03/20 07:34:47;;;;;;;19.33;5.20;;;;;;;;;;4945549;29;20034;-70
2022/03/20 07:37:17;;;;;;;22.42;5.28;;;;;;;;;;4954446;29;20027;-71
2022/03/20 07:39:44;;;;;;;40.90;6.22;;;;;;;;;;4957471;29;20069;-72
2022/03/20 07:42:10;;;;;;;35.85;5.35;;;;;;;;;;4951221;29;20135;-69
2022/03/20 07:44:36;;;;;;;22.75;4.80;;;;;;;;;;4956120;29;20023;-70
2022/03/20 07:47:03;;;;;;;18.77;5.15;;;;;;;;;;4954887;29;20027;-66
2022/03/20 07:49:30;;;;;;;23.15;5.20;;;;;;;;;;4945669;28;20035;-68
2022/03/20 07:51:57;;;;;;;20.45;5.40;;;;;;;;;;4956419;28;20359;-71
2022/03/20 07:54:24;;;;;;;22.08;5.35;;;;;;;;;;4956015;28;20035;-67
2022/03/20 07:56:50;;;;;;;23.17;5.78;;;;;;;;;;4955994;29;20392;-69
2022/03/20 07:59:16;;;;;;;14.98;5.13;;;;;;;;;;4945487;28;20028;-69
2022/03/20 08:01:43;;;;;;;14.95;6.18;;;;;;;;;;4935342;29;20044;-70
2022/03/20 08:04:09;;;;;;;12.90;5.97;;;;;;;;;;4936761;29;20554;-68
2022/03/20 08:06:36;;;;;;;16.52;5.55;;;;;;;;;;4946871;28;20494;-68
2022/03/20 08:09:02;;;;;;;16.90;6.15;;;;;;;;;;4937667;29;20460;-70
2022/03/20 08:11:29;;;;;;;15.90;6.22;;;;;;;;;;4945166;29;20036;-69
2022/03/20 08:13:56;;;;;;;10.57;5.85;;;;;;;;;;4939040;28;20046;-71
2022/03/20 08:16:25;;;;;;;9.48;5.63;;;;;;;;;;4952072;28;20051;-69
2022/03/20 08:18:52;;;;;;;12.80;6.35;;;;;;;;;;4955055;28;20074;-69
2022/03/20 08:21:18;;;;;;;13.82;6.38;;;;;;;;;;4955705;29;20396;-70
2022/03/20 08:23:44;;;;;;;9.23;5.82;;;;;;;;;;4951181;29;20106;-73
2022/03/20 08:26:11;;;;;;;9.15;5.97;;;;;;;;;;4955537;28;20032;-70
2022/03/20 08:28:38;;;;;;;8.85;5.75;;;;;;;;;;4940598;29;20118;-71
2022/03/20 08:31:06;;;;;;;15.52;6.63;;;;;;;;;;4939720;29;20054;-70
2022/03/20 08:33:32;;;;;;;24.27;6.95;;;;;;;;;;4946561;28;20156;-67
2022/03/20 08:35:58;;;;;;;16.70;6.72;;;;;;;;;;4945870;28;20126;-67
2022/03/20 08:38:24;;;;;;;10.50;6.60;;;;;;;;;;4946894;29;20432;-69
2022/03/20 08:40:50;;;;;;;16.50;6.35;;;;;;;;;;4954621;29;20067;-70
2022/03/20 08:43:16;;;;;;;15.77;6.88;;;;;;;;;;4937136;28;20042;-70
2022/03/20 08:45:44;;;;;;;17.45;6.75;;;;;;;;;;4934856;29;20700;-64
2022/03/20 08:48:10;;;;;;;19.48;6.32;;;;;;;;;;4954266;28;20462;-68
2022/03/20 08:50:36;;;;;;;15.05;6.80;;;;;;;;;;4955088;29;20027;-66
2022/03/20 08:53:03;;;;;;;17.38;7.32;;;;;;;;;;4952096;28;20070;-66
2022/03/20 08:55:31;;;;;;;10.73;7.05;;;;;;;;;;4941269;29;20035;-66
2022/03/20 08:57:57;;;;;;;13.98;7.40;;;;;;;;;;4954896;28;20118;-66
2022/03/20 09:00:24;;;;;;;11.07;7.55;;;;;;;;;;4953401;29;20039;-66
2022/03/20 09:02:51;;;;;;;9.88;7.20;;;;;;;;;;4955930;28;20031;-66
2022/03/20 09:05:17;;;;;;;15.50;8.38;;;;;;;;;;4937653;29;20032;-66
2022/03/20 09:07:44;;;;;;;14.50;7.70;;;;;;;;;;4955074;28;20050;-67
2022/03/20 09:10:10;;;;;;;14.80;7.43;;;;;;;;;;4949299;29;20039;-67
2022/03/20 09:12:40;;;;;;;16.67;8.32;;;;;;;;;;4940603;29;20067;-67
2022/03/20 09:15:07;;;;;;;14.90;8.45;;;;;;;;;;4941629;28;20070;-66
2022/03/20 09:20:17;;;;;;;13.93;8.52;;;;;;;;;;4942651;29;20034;-70
2022/03/20 09:22:43;;;;;;;17.13;9.02;;;;;;;;;;4952849;29;20035;-70
2022/03/20 09:25:10;;;;;;;14.93;8.95;;;;;;;;;;4938744;29;20098;-69
2022/03/20 09:27:36;;;;;;;16.23;9.40;;;;;;;;;;4941799;29;20055;-71
2022/03/20 09:30:03;;;;;;;15.77;9.15;;;;;;;;;;4944529;28;20055;-67
2022/03/20 09:32:29;;;;;;;18.00;9.30;;;;;;;;;;4940940;29;20063;-68
2022/03/20 09:34:55;;;;;;;13.38;8.75;;;;;;;;;;4951780;29;20085;-68
2022/03/20 09:37:21;;;;;;;15.80;8.93;;;;;;;;;;4960713;28;20036;-70
2022/03/20 09:39:47;;;;;;;15.05;9.00;;;;;;;;;;4952682;29;20034;-71
2022/03/20 09:42:13;;;;;;;12.27;8.65;;;;;;;;;;4951688;29;20680;-70
2022/03/20 09:44:40;;;;;;;13.45;8.75;;;;;;;;;;4949775;29;20031;-70
2022/03/20 09:47:10;;;;;;;18.17;8.77;;;;;;;;;;4943248;28;20032;-71
2022/03/20 09:49:36;;;;;;;18.88;9.40;;;;;;;;;;4950098;29;20024;-69
2022/03/20 09:52:03;;;;;;;17.58;9.73;;;;;;;;;;4939738;29;20094;-69
2022/03/20 09:54:29;;;;;;;15.25;9.18;;;;;;;;;;4954994;29;20047;-70
2022/03/20 09:56:55;;;;;;;13.43;9.77;;;;;;;;;;4955825;29;20073;-71
2022/03/20 09:59:21;;;;;;;11.75;8.98;;;;;;;;;;4943506;28;20023;-67
2022/03/20 10:01:47;;;;;;;13.50;8.65;;;;;;;;;;4940895;29;20023;-71
2022/03/20 10:04:16;;;;;;;15.43;9.70;;;;;;;;;;4945590;28;20026;-69
2022/03/20 10:06:43;;;;;;;14.18;8.82;;;;;;;;;;4951725;29;20066;-70
2022/03/20 10:09:10;;;;;;;13.70;9.00;;;;;;;;;;4953120;29;20158;-72
2022/03/20 10:11:39;;;;;;;13.82;8.95;;;;;;;;;;4937570;29;20487;-70
2022/03/20 10:14:18;;;;;;;13.13;8.68;;;;;;;;;;4942926;29;20039;-72
2022/03/20 10:17:03;;;;;;;14.10;9.65;;;;;;;;;;4945683;29;20048;-71
2022/03/20 10:19:29;;;;;;;13.77;9.02;;;;;;;;;;4952578;29;20045;-71
2022/03/20 10:21:58;;;;;;;11.38;8.68;;;;;;;;;;4954505;29;20035;-71
2022/03/20 10:24:25;;;;;;;13.77;9.02;;;;;;;;;;4940345;29;20078;-70
2022/03/20 10:27:14;;;;;;;14.05;9.02;;;;;;;;;;4954813;29;20027;-68
2022/03/20 10:29:52;;;;;;;14.80;9.07;;;;;;;;;;4939342;28;20146;-69
2022/03/20 10:32:18;;;;;;;12.23;9.02;;;;;;;;;;4948852;28;20035;-72
2022/03/20 10:34:48;;;;;;;17.30;9.82;;;;;;;;;;4953477;29;20027;-68
2022/03/20 10:37:14;;;;;;;15.07;9.25;;;;;;;;;;4967344;28;20104;-69
2022/03/20 10:39:42;;;;;;;16.13;9.65;;;;;;;;;;4973688;28;20117;-68
2022/03/20 10:42:11;;;;;;;14.93;9.70;;;;;;;;;;4973373;28;20026;-69
2022/03/20 10:44:38;;;;;;;11.13;8.90;;;;;;;;;;4973684;28;20529;-69
2022/03/20 10:47:09;;;;;;;14.32;9.13;;;;;;;;;;4960697;28;20359;-67
2022/03/20 10:49:35;;;;;;;12.48;8.98;;;;;;;;;;4935389;29;20090;-69
2022/03/20 10:52:20;;;;;;;11.43;8.13;;;;;;;;;;4952107;29;20668;-69
2022/03/20 10:54:47;;;;;;;16.52;9.73;;;;;;;;;;4940037;29;20047;-67
2022/03/20 10:57:14;;;;;;;14.48;9.02;;;;;;;;;;4954288;28;20058;-70
2022/03/20 10:59:41;;;;;;;14.80;9.40;;;;;;;;;;4945382;28;20043;-69
2022/03/20 11:02:20;;;;;;;16.30;8.40;;;;;;;;;;4946789;29;20471;-70
2022/03/20 11:04:46;;;;;;;12.27;8.98;;;;;;;;;;4954092;29;20035;-68
2022/03/20 11:07:16;;;;;;;14.82;8.82;;;;;;;;;;4954312;29;20031;-67
2022/03/20 11:09:44;;;;;;;15.35;8.77;;;;;;;;;;4954413;28;20720;-70
2022/03/20 11:12:12;;;;;;;13.13;9.00;;;;;;;;;;4953712;28;20510;-72
2022/03/20 11:14:38;;;;;;;15.43;9.32;;;;;;;;;;4976785;28;20402;-68
2022/03/20 11:17:06;;;;;;;14.85;9.73;;;;;;;;;;4953856;28;20390;-68
2022/03/20 11:19:33;;;;;;;13.88;9.70;;;;;;;;;;4935553;28;20034;-67
2022/03/20 11:22:06;;;;;;;13.13;9.60;;;;;;;;;;4939196;29;20032;-69
2022/03/20 11:24:32;;;;;;;14.13;8.93;;;;;;;;;;4939350;29;20110;-70
2022/03/20 11:27:00;;;;;;;15.45;9.52;;;;;;;;;;4954605;29;20027;-69
2022/03/20 11:29:27;;;;;;;15.07;9.35;;;;;;;;;;4948142;28;20020;-70
2022/03/20 11:31:54;;;;;;;12.60;9.10;;;;;;;;;;4953293;29;20032;-72
2022/03/20 11:34:20;;;;;;;11.57;8.80;;;;;;;;;;4948143;29;20043;-71
2022/03/20 11:37:02;;;;;;;13.10;8.98;;;;;;;;;;4953799;29;20035;-72
2022/03/20 11:39:28;;;;;;;15.75;9.10;;;;;;;;;;4945833;28;20032;-69
2022/03/20 11:42:12;;;;;;;13.65;9.45;;;;;;;;;;4950076;28;20372;-70
2022/03/20 11:44:50;;;;;;;15.45;9.63;;;;;;;;;;4953024;29;20039;-71
2022/03/20 11:47:16;;;;;;;15.48;9.98;;;;;;;;;;4950745;29;20459;-69
2022/03/20 11:49:42;;;;;;;14.50;10.02;;;;;;;;;;4946460;28;20043;-70
2022/03/20 11:52:13;;;;;;;13.07;9.18;;;;;;;;;;4945426;29;20023;-70
2022/03/20 11:54:42;;;;;;;14.32;9.48;;;;;;;;;;4943255;28;20055;-72
2022/03/20 11:57:27;;;;;;;16.83;10.18;;;;;;;;;;4941832;29;20027;-70
2022/03/20 11:59:56;;;;;;;17.45;10.90;;;;;;;;;;4950587;29;20714;-69
2022/03/20 12:02:42;;;;;;;16.27;11.45;;;;;;;;;;4951437;28;20035;-70
2022/03/20 12:05:21;;;;;;;25.75;10.82;;;;;;;;;;4950718;29;20463;-68
2022/03/20 12:08:05;;;;;;;40.50;14.48;;;;;;;;;;4952611;29;20075;-73
2022/03/20 12:10:53;;;;;;;30.90;15.23;;;;;;;;;;4934258;28;20043;-70
2022/03/20 12:13:25;;;;;;;28.63;15.50;;;;;;;;;;4941641;29;20726;-70
2022/03/20 12:15:53;;;;;;;30.97;16.90;;;;;;;;;;4944018;29;20127;-68
2022/03/20 12:18:19;;;;;;;41.60;18.48;;;;;;;;;;4950799;29;20066;-66
2022/03/20 12:20:52;;;;;;;37.30;17.67;;;;;;;;;;4956084;29;20035;-69
2022/03/20 12:23:18;;;;;;;;;;;;;;;;;;4953801;28;20464;-71
2022/03/20 12:25:44;;;;;;;29.92;17.90;;;;;;;;;;4956546;29;20342;-74
2022/03/20 12:28:27;;;;;;;36.78;19.13;;;;;;;;;;4939955;29;20023;-72
2022/03/20 12:30:53;;;;;;;28.60;18.00;;;;;;;;;;4937104;29;20067;-73
2022/03/20 12:33:23;;;;;;;28.30;17.38;;;;;;;;;;4943534;29;20070;-70
2022/03/20 12:35:49;;;;;;;25.27;18.08;;;;;;;;;;4941289;28;20035;-68
2022/03/20 12:38:35;;;;;;;23.13;15.90;;;;;;;;;;4959043;28;20035;-69
2022/03/20 12:41:08;;;;;;;28.63;16.17;;;;;;;;;;4948310;29;20055;-67
2022/03/20 12:43:34;;;;;;;25.73;16.70;;;;;;;;;;4951368;28;20032;-70
2022/03/20 12:46:01;;;;;;;29.20;16.40;;;;;;;;;;4945643;29;20114;-67
2022/03/20 12:48:31;;;;;;;22.85;17.25;;;;;;;;;;4955455;28;20035;-70
2022/03/20 12:51:04;;;;;;;26.38;17.67;;;;;;;;;;4953780;28;20027;-72
2022/03/20 12:53:37;;;;;;;26.80;17.70;;;;;;;;;;4955036;29;20344;-69
2022/03/20 12:56:11;;;;;;;25.45;16.23;;;;;;;;;;4936076;29;20126;-75
2022/03/20 12:58:38;;;;;;;30.10;17.85;;;;;;;;;;4946993;29;20148;-70
2022/03/20 13:01:07;;;;;;;27.67;17.80;;;;;;;;;;4951963;29;20067;-69
2022/03/20 13:03:33;;;;;;;22.45;16.70;;;;;;;;;;4946573;29;20043;-68
2022/03/20 13:06:00;;;;;;;25.52;17.83;;;;;;;;;;4941792;29;20015;-73
2022/03/20 13:08:30;;;;;;;26.90;16.95;;;;;;;;;;4954598;28;20027;-70
2022/03/20 13:10:57;;;;;;;24.90;17.80;;;;;;;;;;4950441;29;20054;-72
2022/03/20 13:13:36;;;;;;;32.30;19.67;;;;;;;;;;4950701;29;20028;-70
2022/03/20 13:16:14;;;;;;;27.92;19.15;;;;;;;;;;4935390;29;20106;-74
2022/03/20 13:18:40;;;;;;;27.88;19.30;;;;;;;;;;4942539;29;20027;-76
2022/03/20 13:21:07;;;;;;;27.90;19.27;;;;;;;;;;4946532;28;20027;-68
2022/03/20 13:23:33;;;;;;;30.25;20.23;;;;;;;;;;4943943;29;20022;-69
2022/03/20 13:26:00;;;;;;;32.40;20.95;;;;;;;;;;4946531;29;20023;-72
2022/03/20 13:28:33;;;;;;;30.33;20.48;;;;;;;;;;4953512;28;20035;-73
2022/03/20 13:31:03;;;;;;;28.52;20.60;;;;;;;;;;4937745;29;20086;-70
2022/03/20 13:33:29;;;;;;;33.63;22.10;;;;;;;;;;4944197;29;20504;-65
2022/03/20 13:35:56;;;;;;;30.00;21.75;;;;;;;;;;4942894;29;20058;-67
2022/03/20 13:38:22;;;;;;;29.90;20.30;;;;;;;;;;4943317;28;20028;-63
2022/03/20 13:40:48;;;;;;;40.63;21.10;;;;;;;;;;4940503;29;20048;-62
2022/03/20 13:43:21;;;;;;;31.42;20.25;;;;;;;;;;4948608;29;20027;-72
2022/03/20 13:45:48;;;;;;;32.10;20.55;;;;;;;;;;4941958;29;20023;-74
2022/03/20 13:48:15;;;;;;;51.50;20.65;;;;;;;;;;4935718;29;20043;-72
2022/03/20 13:50:41;;;;;;;42.00;22.05;;;;;;;;;;4940110;29;20606;-68
2022/03/20 13:53:07;;;;;;;34.78;19.27;;;;;;;;;;4934974;29;20039;-69
2022/03/20 13:55:38;;;;;;;54.45;19.50;;;;;;;;;;4943248;29;20047;-68
2022/03/20 13:58:05;;;;;;;44.05;19.10;;;;;;;;;;4942680;28;20038;-67
2022/03/20 14:00:35;;;;;;;33.45;18.85;;;;;;;;;;4941484;29;20027;-67
2022/03/20 14:03:02;;;;;;;46.97;18.20;;;;;;;;;;4941964;29;20024;-68
2022/03/20 14:05:29;;;;;;;29.92;17.92;;;;;;;;;;4941710;28;20027;-68
2022/03/20 14:08:10;;;;;;;43.85;17.98;;;;;;;;;;4949090;29;20042;-67
2022/03/20 14:10:46;;;;;;;32.92;17.67;;;;;;;;;;4951971;28;20086;-73
2022/03/20 14:13:19;;;;;;;41.20;16.05;;;;;;;;;;4943444;29;20082;-76
2022/03/20 14:15:46;;;;;;;;;;;;;;;;;;4945086;29;20051;-76
2022/03/20 14:18:16;;;;;;;27.42;15.85;;;;;;;;;;4947682;28;19919;-77
2022/03/20 14:20:43;;;;;;;24.23;14.88;;;;;;;;;;4953314;29;20515;-74
2022/03/20 14:23:11;;;;;;;23.67;15.40;;;;;;;;;;4949393;28;20057;-73
2022/03/20 14:25:37;;;;;;;29.52;16.25;;;;;;;;;;4947476;29;20027;-74
2022/03/20 14:28:05;;;;;;;27.70;16.45;;;;;;;;;;4950670;28;20027;-78
2022/03/20 14:41:35;;;;;;;23.92;15.63;;;;;;;;;;4951942;28;20135;-74
2022/03/20 14:44:04;;;;;;;23.77;15.10;;;;;;;;;;4950217;28;20030;-76
2022/03/20 14:46:30;;;;;;;22.88;14.43;;;;;;;;;;4950839;29;20064;-70
2022/03/20 14:48:57;;;;;;;25.45;16.13;;;;;;;;;;4940362;28;20027;-66
2022/03/20 14:51:23;;;;;;;24.30;15.30;;;;;;;;;;4947578;29;20019;-67
2022/03/20 14:53:49;;;;;;;30.45;15.40;;;;;;;;;;4951989;29;20074;-65
2022/03/20 14:56:15;;;;;;;24.90;15.00;;;;;;;;;;4953685;28;20039;-67
2022/03/20 14:58:45;;;;;;;30.92;14.65;;;;;;;;;;4943878;28;20019;-66
2022/03/20 15:01:11;;;;;;;22.88;13.88;;;;;;;;;;4939657;29;20059;-63
2022/03/20 15:03:37;;;;;;;19.77;13.35;;;;;;;;;;4944416;28;20026;-63
2022/03/20 15:06:03;;;;;;;23.98;15.23;;;;;;;;;;4947145;29;20475;-66
2022/03/20 15:11:26;;;;;;;17.83;13.68;;;;;;;;;;4945542;29;20046;-64
2022/03/20 15:13:56;;;;;;;21.45;14.00;;;;;;;;;;4943999;29;20386;-66
2022/03/20 15:16:23;;;;;;;20.50;13.32;;;;;;;;;;4941547;28;20048;-66
2022/03/20 15:18:50;;;;;;;20.63;13.23;;;;;;;;;;4942473;29;20024;-65
2022/03/20 15:21:16;;;;;;;19.20;13.05;;;;;;;;;;4937901;29;20039;-71